Terminal Aerodrome Forecast
Issued by NWS

Home | Current Version | Previous Version | Text Only | Print | Product List | Glossary On
Versions: 1 2 3 4 5 6 7 8 9 10 11 12 13 14
750
FTUS45 KABQ 181122
TAFGUP
TAF
KGUP 181122Z 1812/1912 VRB03KT P6SM SKC
     FM182000 25007KT P6SM SCT120
     FM190200 VRB03KT P6SM SCT110=

USA.gov is the U.S. government's official web portal to all federal, state and local government web resources and services.